Spacecraft Satellite overpass computed based on SGP4 code. Updated every day at 2:25 LT
Spacecraft : Terra    
         GMT                             Satellite      Satellite     Solar          Solar         Scat ang       
  year-mo-da hr:mn:sc    elevation     azimuth    elevation   azimuth    (bk=180)     
  2019-12-06 08:11:14     15.2             88.2          12.0           149.0         121.0
  2019-12-06 09:49:33     78.4            286.7          17.3           171.8         102.2
  2019-12-06 11:26:33     13.6            305.9          16.4           195.2          74.7
  2019-12-06 19:22:18     28.5             63.1         -44.8           290.8        -999.0
  2019-12-06 20:59:53     43.0            261.6         -57.5           321.4        -999.0
Spacecraft : Aqua    
         GMT                             Satellite      Satellite     Solar          Solar         Scat ang       
  year-mo-da hr:mn:sc    elevation     azimuth    elevation   azimuth    (bk=180)     
  2019-12-06 00:24:39     57.4            101.0         -53.1            52.0        -999.0
  2019-12-06 02:02:03     22.5            299.7         -38.9            77.8        -999.0
  2019-12-06 09:57:45     17.2             57.0          17.5           173.8          71.2
  2019-12-06 11:34:56     80.0            255.9          16.0           197.2         111.0
  2019-12-06 13:13:26     11.3            274.5           8.5           219.1         125.4
  2019-12-06 23:29:17     19.5             90.6         -59.2            31.2        -999.0
Spacecraft : CALIPSO    
         GMT                             Satellite      Satellite     Solar          Solar         Scat ang       
  year-mo-da hr:mn:sc    elevation     azimuth    elevation   azimuth    (bk=180)     
  2019-12-06 00:10:36     29.3             94.9         -54.8            47.3        -999.0
  2019-12-06 01:48:06     39.0            293.2         -41.1            74.7        -999.0
  2019-12-06 11:18:44     51.1             69.4          16.7           193.3          83.6
  2019-12-06 12:56:24     22.5            267.7          10.2           215.5         128.7
Spacecraft : CloudSat    
         GMT                             Satellite      Satellite     Solar          Solar         Scat ang       
  year-mo-da hr:mn:sc    elevation     azimuth    elevation   azimuth    (bk=180)     
  2019-12-06 00:11:18     29.3             94.9         -54.8            47.5        -999.0
  2019-12-06 01:48:47     39.1            293.3         -41.0            74.9        -999.0
  2019-12-06 11:19:25     51.1             69.4          16.6           193.5          83.4
  2019-12-06 12:57:06     22.5            267.7          10.1           215.7         128.8
Spacecraft : ISS    
         GMT                             Satellite      Satellite     Solar          Solar         Scat ang       
  year-mo-da hr:mn:sc    elevation     azimuth    elevation   azimuth    (bk=180)     
  2019-12-06 11:04:28     14.2            138.1          17.1           189.9         130.1
  2019-12-06 12:40:41     59.2            156.0          11.6           212.1         116.9
  2019-12-06 14:17:27     65.3            355.9           1.5           232.0          77.9
  2019-12-06 15:54:19     88.4             15.8         -12.0           249.8        -999.0
  2019-12-06 17:30:49     26.9            214.4         -27.1           267.3        -999.0